Nikko Maru No.6 — JJ3817 — position and weather

sailwx.info

Track history (hours):
 
Tides and Currents Weather Stations Pressure Air Temp Water Temp Dewpoint Dewpoint Depression Visibility Wind Speed Wind Dir Waves Ship Positions

Nikko Maru No.6

Last reported at 2018-Jan-19 21:00 UTC. Time now 2018-Jan-19 21:25 UTC.
Position N 34°53' E 139°25'.

Length 57 m; draft 4 m.

Type: Tanker. MMSI: 431400324.

Date/timePositionNaut miles runAvg speedWind from/ knotsBaromVisibWave heightAir tempDewpointWater temp
2018-Jan-19 21:00N 34°53' E 139°25'711.7
2018-Jan-19 20:26N 34°49' E 139°19'511.2
2018-Jan-19 20:00N 34°46' E 139°14'711.0
2018-Jan-19 19:23N 34°42' E 139°08'410.3
2018-Jan-19 19:00N 34°40' E 139°04'610.2
2018-Jan-19 18:28N 34°36' E 138°59'5 9.8
2018-Jan-19 17:54N 34°35' E 138°52'410.7
2018-Jan-19 17:30N 34°34' E 138°47'610.7
2018-Jan-19 16:59N 34°34' E 138°40'510.4
2018-Jan-19 16:27N 34°33' E 138°34'1411.2
2018-Jan-19 15:13N 34°32' E 138°17'311.6
2018-Jan-19 14:59N 34°32' E 138°14'4612.1
2018-Jan-19 11:12N 34°32' E 137°18'212.1
2018-Jan-19 11:00N 34°32' E 137°15'811.9
2018-Jan-19 10:20N 34°32' E 137°06'1110.9
2018-Jan-19 09:20N 34°37' E 136°54'411.4
2018-Jan-19 09:00N 34°39' E 136°50'611.7
2018-Jan-19 08:30N 34°45' E 136°47'611.7
2018-Jan-19 08:00N 34°50' E 136°44'611.8
2018-Jan-19 07:30N 34°56' E 136°42'4 8.0
2018-Jan-19 07:00N 34°59' E 136°39'0 0.0
2018-Jan-19 06:30N 34°59' E 136°39'0 0.0
2018-Jan-19 05:59N 34°59' E 136°39'0 0.0
2018-Jan-19 05:30N 34°59' E 136°39'0 0.0
2018-Jan-19 05:00N 34°59' E 136°39'0 0.0
2018-Jan-19 04:30N 34°59' E 136°39'0 0.0
2018-Jan-19 04:00N 34°59' E 136°39'0 0.0
2018-Jan-19 03:29N 34°59' E 136°39'0 0.1
2018-Jan-19 03:00N 34°59' E 136°39'0 0.1
2018-Jan-19 02:30N 34°59' E 136°39'2 4.2
2018-Jan-19 02:00N 34°58' E 136°41'611.2
2018-Jan-19 01:30N 34°53' E 136°43'611.2
2018-Jan-19 01:00N 34°47' E 136°46'611.0
2018-Jan-19 00:29N 34°43' E 136°51'811.1
2018-Jan-18 23:46N 34°37' E 136°56'11 9.9
2018-Jan-18 22:37N 34°34' E 137°10'210.9
2018-Jan-18 22:28N 34°34' E 137°12'5410.1
2018-Jan-18 17:09N 34°34' E 138°17'1110.5
2018-Jan-18 16:03N 34°34' E 138°31'110.0
2018-Jan-18 15:59N 34°34' E 138°32'1310.1
2018-Jan-18 14:43N 34°35' E 138°47'2 9.7
2018-Jan-18 14:30N 34°35' E 138°50'5 9.2
2018-Jan-18 14:00N 34°36' E 138°55'6 9.0
2018-Jan-18 13:22N 34°40' E 139°00'410.2
2018-Jan-18 12:58N 34°43' E 139°03'510.3
2018-Jan-18 12:30N 34°47' E 139°07'611.0
2018-Jan-18 11:58N 34°52' E 139°11'611.2
2018-Jan-18 11:23N 34°57' E 139°16'511.3
2018-Jan-18 10:57N 34°59' E 139°21'510.6
2018-Jan-18 10:28N 35°01' E 139°27'510.2
2018-Jan-18 10:00N 35°04' E 139°32'611.2
2018-Jan-18 09:30N 35°06' E 139°38'611.4
2018-Jan-18 09:00N 35°10' E 139°43'510.0
2018-Jan-18 08:30N 35°14' E 139°46'611.2
2018-Jan-18 08:00N 35°19' E 139°43'611.2
2018-Jan-18 07:31N 35°24' E 139°40'1 1.3
2018-Jan-18 07:00N 35°25' E 139°39'0 0.0
2018-Jan-18 06:30N 35°25' E 139°39'0 0.0
2018-Jan-18 06:00N 35°25' E 139°39'0 0.0
2018-Jan-18 05:30N 35°25' E 139°39'0 0.0
2018-Jan-18 05:01N 35°25' E 139°39'0 0.1
2018-Jan-18 04:30N 35°25' E 139°39'2 4.4
2018-Jan-18 04:00N 35°24' E 139°42'5 9.9
2018-Jan-18 03:30N 35°29' E 139°42'3 5.8
2018-Jan-18 03:01N 35°31' E 139°45'0 0.0
2018-Jan-18 02:30N 35°31' E 139°45'0 0.0
2018-Jan-18 02:00N 35°31' E 139°45'0 0.0
2018-Jan-18 01:30N 35°31' E 139°45'0 0.0
2018-Jan-18 01:01N 35°31' E 139°45'0 0.0
2018-Jan-18 00:01N 35°31' E 139°45'0 0.0
2018-Jan-17 23:56N 35°31' E 139°45'  
2018-Jan-12 14:39N 34°55' E 140°02'411.6
2018-Jan-12 14:16N 34°58' E 140°06'5 0.1
2018-Jan-10 11:56N 35°01' E 140°11'511.4
2018-Jan-10 11:30N 34°58' E 140°06'1711.3
2018-Jan-10 10:01N 34°51' E 139°48'312.2
2018-Jan-10 09:46N 34°51' E 139°44'512.5
2018-Jan-10 09:23N 34°51' E 139°38'512.5
2018-Jan-10 08:59N 34°51' E 139°32'611.8
2018-Jan-10 08:30N 34°51' E 139°26'813.2
2018-Jan-10 07:56N 34°48' E 139°17'612.9
2018-Jan-10 07:30N 34°45' E 139°11'612.3
2018-Jan-10 06:59N 34°41' E 139°06'612.0
2018-Jan-10 06:30N 34°38' E 138°60'612.1
2018-Jan-10 05:58N 34°35' E 138°53'612.4
2018-Jan-10 05:28N 34°35' E 138°45'611.9
2018-Jan-10 04:58N 34°34' E 138°38'611.4
2018-Jan-10 04:27N 34°34' E 138°31'711.1
2018-Jan-10 03:51N 34°34' E 138°23'411.9
2018-Jan-10 03:30N 34°34' E 138°18'5211.7
2018-Jan-09 23:03N 34°33' E 137°14'111.2
2018-Jan-09 22:59N 34°33' E 137°14'1610.7
2018-Jan-09 21:27N 34°37' E 136°54'511.6
2018-Jan-09 21:00N 34°41' E 136°50'  
Track history (hours):
 
Tides and Currents Weather Stations Pressure Air Temp Water Temp Dewpoint Dewpoint Depression Visibility Wind Speed Wind Dir Waves Ship Positions

Nikko Maru No.6

Last reported at 2018-Jan-19 21:00 UTC. Time now 2018-Jan-19 21:25 UTC.
Position N 34°53' E 139°25'.

Length 57 m; draft 4 m.

Type: Tanker. MMSI: 431400324.

Date/timePositionNaut miles runAvg speedWind from/ knotsBaromVisibWave heightAir tempDewpointWater temp
2018-Jan-19 21:00N 34°53' E 139°25'711.7
2018-Jan-19 20:26N 34°49' E 139°19'511.2
2018-Jan-19 20:00N 34°46' E 139°14'711.0
2018-Jan-19 19:23N 34°42' E 139°08'410.3
2018-Jan-19 19:00N 34°40' E 139°04'610.2
2018-Jan-19 18:28N 34°36' E 138°59'5 9.8
2018-Jan-19 17:54N 34°35' E 138°52'410.7
2018-Jan-19 17:30N 34°34' E 138°47'610.7
2018-Jan-19 16:59N 34°34' E 138°40'510.4
2018-Jan-19 16:27N 34°33' E 138°34'1411.2
2018-Jan-19 15:13N 34°32' E 138°17'311.6
2018-Jan-19 14:59N 34°32' E 138°14'4612.1
2018-Jan-19 11:12N 34°32' E 137°18'212.1
2018-Jan-19 11:00N 34°32' E 137°15'811.9
2018-Jan-19 10:20N 34°32' E 137°06'1110.9
2018-Jan-19 09:20N 34°37' E 136°54'411.4
2018-Jan-19 09:00N 34°39' E 136°50'611.7
2018-Jan-19 08:30N 34°45' E 136°47'611.7
2018-Jan-19 08:00N 34°50' E 136°44'611.8
2018-Jan-19 07:30N 34°56' E 136°42'4 8.0
2018-Jan-19 07:00N 34°59' E 136°39'0 0.0
2018-Jan-19 06:30N 34°59' E 136°39'0 0.0
2018-Jan-19 05:59N 34°59' E 136°39'0 0.0
2018-Jan-19 05:30N 34°59' E 136°39'0 0.0
2018-Jan-19 05:00N 34°59' E 136°39'0 0.0
2018-Jan-19 04:30N 34°59' E 136°39'0 0.0
2018-Jan-19 04:00N 34°59' E 136°39'0 0.0
2018-Jan-19 03:29N 34°59' E 136°39'0 0.1
2018-Jan-19 03:00N 34°59' E 136°39'0 0.1
2018-Jan-19 02:30N 34°59' E 136°39'2 4.2
2018-Jan-19 02:00N 34°58' E 136°41'611.2
2018-Jan-19 01:30N 34°53' E 136°43'611.2
2018-Jan-19 01:00N 34°47' E 136°46'611.0
2018-Jan-19 00:29N 34°43' E 136°51'811.1
2018-Jan-18 23:46N 34°37' E 136°56'11 9.9
2018-Jan-18 22:37N 34°34' E 137°10'210.9
2018-Jan-18 22:28N 34°34' E 137°12'5410.1
2018-Jan-18 17:09N 34°34' E 138°17'1110.5
2018-Jan-18 16:03N 34°34' E 138°31'110.0
2018-Jan-18 15:59N 34°34' E 138°32'1310.1
2018-Jan-18 14:43N 34°35' E 138°47'2 9.7
2018-Jan-18 14:30N 34°35' E 138°50'5 9.2
2018-Jan-18 14:00N 34°36' E 138°55'6 9.0
2018-Jan-18 13:22N 34°40' E 139°00'410.2
2018-Jan-18 12:58N 34°43' E 139°03'510.3
2018-Jan-18 12:30N 34°47' E 139°07'611.0
2018-Jan-18 11:58N 34°52' E 139°11'611.2
2018-Jan-18 11:23N 34°57' E 139°16'511.3
2018-Jan-18 10:57N 34°59' E 139°21'510.6
2018-Jan-18 10:28N 35°01' E 139°27'510.2
2018-Jan-18 10:00N 35°04' E 139°32'611.2
2018-Jan-18 09:30N 35°06' E 139°38'611.4
2018-Jan-18 09:00N 35°10' E 139°43'510.0
2018-Jan-18 08:30N 35°14' E 139°46'611.2
2018-Jan-18 08:00N 35°19' E 139°43'611.2
2018-Jan-18 07:31N 35°24' E 139°40'1 1.3
2018-Jan-18 07:00N 35°25' E 139°39'0 0.0
2018-Jan-18 06:30N 35°25' E 139°39'0 0.0
2018-Jan-18 06:00N 35°25' E 139°39'0 0.0
2018-Jan-18 05:30N 35°25' E 139°39'0 0.0
2018-Jan-18 05:01N 35°25' E 139°39'0 0.1
2018-Jan-18 04:30N 35°25' E 139°39'2 4.4
2018-Jan-18 04:00N 35°24' E 139°42'5 9.9
2018-Jan-18 03:30N 35°29' E 139°42'3 5.8
2018-Jan-18 03:01N 35°31' E 139°45'0 0.0
2018-Jan-18 02:30N 35°31' E 139°45'0 0.0
2018-Jan-18 02:00N 35°31' E 139°45'0 0.0
2018-Jan-18 01:30N 35°31' E 139°45'0 0.0
2018-Jan-18 01:01N 35°31' E 139°45'0 0.0
2018-Jan-18 00:01N 35°31' E 139°45'0 0.0
2018-Jan-17 23:56N 35°31' E 139°45'  
2018-Jan-12 14:39N 34°55' E 140°02'411.6
2018-Jan-12 14:16N 34°58' E 140°06'5 0.1
2018-Jan-10 11:56N 35°01' E 140°11'511.4
2018-Jan-10 11:30N 34°58' E 140°06'1711.3
2018-Jan-10 10:01N 34°51' E 139°48'312.2
2018-Jan-10 09:46N 34°51' E 139°44'512.5
2018-Jan-10 09:23N 34°51' E 139°38'512.5
2018-Jan-10 08:59N 34°51' E 139°32'611.8
2018-Jan-10 08:30N 34°51' E 139°26'813.2
2018-Jan-10 07:56N 34°48' E 139°17'612.9
2018-Jan-10 07:30N 34°45' E 139°11'612.3
2018-Jan-10 06:59N 34°41' E 139°06'612.0
2018-Jan-10 06:30N 34°38' E 138°60'612.1
2018-Jan-10 05:58N 34°35' E 138°53'612.4
2018-Jan-10 05:28N 34°35' E 138°45'611.9
2018-Jan-10 04:58N 34°34' E 138°38'611.4
2018-Jan-10 04:27N 34°34' E 138°31'711.1
2018-Jan-10 03:51N 34°34' E 138°23'411.9
2018-Jan-10 03:30N 34°34' E 138°18'5211.7
2018-Jan-09 23:03N 34°33' E 137°14'111.2
2018-Jan-09 22:59N 34°33' E 137°14'1610.7
2018-Jan-09 21:27N 34°37' E 136°54'511.6
2018-Jan-09 21:00N 34°41' E 136°50'  

Dump ship's entire track history